Time,TemperatureF,DewpointF,PressureIn,WindDirection,WindDirectionDegrees,WindSpeedMPH,WindSpeedGustMPH,Humidity,HourlyPrecipIn,Conditions,Clouds,dailyrainin,SoftwareType,DateUTC
2013-07-10 00:01:00,54.0,-99.9,29.97,WSW,238,7.0,14.0,-999,-99.99,,,-99.99,,2013-07-10 07:01:00,
2013-07-10 00:12:00,54.0,-99.9,29.97,WSW,238,8.0,17.0,-999,-99.99,,,-99.99,,2013-07-10 07:12:00,
2013-07-10 00:33:00,55.0,-99.9,29.97,WSW,247,5.0,13.0,-999,-99.99,,,-99.99,,2013-07-10 07:33:00,
2013-07-10 00:43:00,54.0,-99.9,29.97,SW,230,6.0,15.0,-999,-99.99,,,-99.99,,2013-07-10 07:43:00,
2013-07-10 00:53:00,54.0,-99.9,29.97,SW,230,6.0,15.0,-999,-99.99,,,-99.99,,2013-07-10 07:53:00,
2013-07-10 01:02:00,54.0,-99.9,29.97,WSW,258,6.0,11.0,-999,-99.99,,,-99.99,,2013-07-10 08:02:00,
2013-07-10 01:12:00,54.0,-99.9,29.97,WSW,242,4.0,15.0,-999,-99.99,,,-99.99,,2013-07-10 08:12:00,
2013-07-10 01:33:00,54.0,-99.9,29.96,WSW,255,4.0,8.0,-999,-99.99,,,-99.99,,2013-07-10 08:33:00,
2013-07-10 01:42:00,54.0,-99.9,29.96,West,267,6.0,9.0,-999,-99.99,,,-99.99,,2013-07-10 08:42:00,
2013-07-10 01:53:00,54.0,-99.9,29.96,WSW,253,7.0,13.0,-999,-99.99,,,-99.99,,2013-07-10 08:53:00,
2013-07-10 02:02:00,54.0,-99.9,29.96,SW,231,5.0,11.0,-999,-99.99,,,-99.99,,2013-07-10 09:02:00,
2013-07-10 02:12:00,54.0,-99.9,29.96,SW,235,6.0,11.0,-999,-99.99,,,-99.99,,2013-07-10 09:12:00,
2013-07-10 02:33:00,54.0,-99.9,29.96,West,274,4.0,10.0,-999,-99.99,,,-99.99,,2013-07-10 09:33:00,
2013-07-10 02:43:00,54.0,-99.9,29.96,NNW,328,2.0,10.0,-999,-99.99,,,-99.99,,2013-07-10 09:43:00,
2013-07-10 02:53:00,54.0,-99.9,29.96,NNW,328,2.0,10.0,-999,-99.99,,,-99.99,,2013-07-10 09:53:00,
2013-07-10 03:01:00,54.0,-99.9,29.96,WSW,239,6.0,10.0,-999,-99.99,,,-99.99,,2013-07-10 10:01:00,
2013-07-10 03:23:00,55.0,-99.9,29.96,WSW,239,1.0,10.0,-999,-99.99,,,-99.99,,2013-07-10 10:23:00,
2013-07-10 03:32:00,54.0,-99.9,29.96,WSW,242,6.0,9.0,-999,-99.99,,,-99.99,,2013-07-10 10:32:00,
2013-07-10 03:51:00,-999.0,-99.9,29.96,NNW,327,1.0,6.0,-999,-99.99,,,-99.99,,2013-07-10 10:51:00,
2013-07-10 04:00:00,-999.0,-99.9,29.96,NE,40,1.0,2.0,-999,-99.99,,,-99.99,,2013-07-10 11:00:00,
2013-07-10 04:11:00,54.0,-99.9,29.95,West,268,5.0,8.0,-999,-99.99,,,-99.99,,2013-07-10 11:11:00,
2013-07-10 04:33:00,54.0,-99.9,29.95,WSW,254,5.0,9.0,-999,-99.99,,,-99.99,,2013-07-10 11:33:00,
2013-07-10 04:43:00,54.0,-99.9,29.95,West,259,7.0,11.0,-999,-99.99,,,-99.99,,2013-07-10 11:43:00,
2013-07-10 04:52:00,54.0,-99.9,29.95,West,261,6.0,13.0,-999,-99.99,,,-99.99,,2013-07-10 11:52:00,
2013-07-10 05:02:00,53.0,-99.9,29.95,WSW,244,8.0,13.0,-999,-99.99,,,-99.99,,2013-07-10 12:02:00,
2013-07-10 05:11:00,53.0,-99.9,29.95,West,265,6.0,11.0,-999,-99.99,,,-99.99,,2013-07-10 12:11:00,
2013-07-10 05:33:00,54.0,-99.9,29.95,WSW,256,6.0,11.0,-999,-99.99,,,-99.99,,2013-07-10 12:33:00,
2013-07-10 05:43:00,54.0,-99.9,29.95,WSW,237,6.0,12.0,-999,-99.99,,,-99.99,,2013-07-10 12:43:00,
2013-07-10 05:53:00,54.0,-99.9,29.95,WSW,240,5.0,8.0,-999,-99.99,,,-99.99,,2013-07-10 12:53:00,
2013-07-10 06:01:00,54.0,-99.9,29.96,West,275,4.0,8.0,-999,-99.99,,,-99.99,,2013-07-10 13:01:00,
2013-07-10 06:12:00,54.0,-99.9,29.96,West,275,4.0,8.0,-999,-99.99,,,-99.99,,2013-07-10 13:12:00,
2013-07-10 06:32:00,54.0,-99.9,29.96,West,261,7.0,11.0,-999,-99.99,,,-99.99,,2013-07-10 13:32:00,
2013-07-10 06:43:00,54.0,-99.9,29.96,WSW,256,7.0,12.0,-999,-99.99,,,-99.99,,2013-07-10 13:43:00,
2013-07-10 06:52:00,54.0,-99.9,29.96,WSW,256,7.0,12.0,-999,-99.99,,,-99.99,,2013-07-10 13:52:00,
2013-07-10 07:02:00,54.0,-99.9,29.96,West,262,6.0,10.0,-999,-99.99,,,-99.99,,2013-07-10 14:02:00,
2013-07-10 07:12:00,54.0,-99.9,29.96,West,262,6.0,10.0,-999,-99.99,,,-99.99,,2013-07-10 14:12:00,
2013-07-10 07:22:00,54.0,-99.9,29.96,West,262,6.0,10.0,-999,-99.99,,,-99.99,,2013-07-10 14:22:00,
2013-07-10 07:33:00,54.0,-99.9,29.96,West,269,4.0,7.0,-999,-99.99,,,-99.99,,2013-07-10 14:33:00,
2013-07-10 07:44:00,55.0,-99.9,29.96,West,259,3.0,6.0,-999,-99.99,,,-99.99,,2013-07-10 14:44:00,
2013-07-10 08:02:00,55.0,-99.9,29.96,West,270,4.0,7.0,-999,-99.99,,,-99.99,,2013-07-10 15:02:00,
2013-07-10 08:11:00,55.0,-99.9,29.97,West,262,6.0,9.0,-999,-99.99,,,-99.99,,2013-07-10 15:11:00,
2013-07-10 08:34:00,56.0,-99.9,29.97,SSW,195,1.0,4.0,-999,-99.99,,,-99.99,,2013-07-10 15:34:00,
2013-07-10 08:43:00,56.0,-99.9,29.96,South,175,6.0,11.0,-999,-99.99,,,-99.99,,2013-07-10 15:43:00,
2013-07-10 08:52:00,56.0,-99.9,29.96,South,175,6.0,11.0,-999,-99.99,,,-99.99,,2013-07-10 15:52:00,
2013-07-10 09:02:00,57.0,-99.9,29.97,West,263,1.0,4.0,-999,-99.99,,,-99.99,,2013-07-10 16:02:00,
2013-07-10 09:23:00,57.0,-99.9,29.97,SE,139,0.0,6.0,-999,-99.99,,,-99.99,,2013-07-10 16:23:00,
2013-07-10 09:33:00,57.0,-99.9,29.96,West,267,6.0,9.0,-999,-99.99,,,-99.99,,2013-07-10 16:33:00,
2013-07-10 09:44:00,57.0,-99.9,29.97,West,268,6.0,10.0,-999,-99.99,,,-99.99,,2013-07-10 16:44:00,
2013-07-10 09:53:00,57.0,-99.9,29.97,West,268,6.0,10.0,-999,-99.99,,,-99.99,,2013-07-10 16:53:00,
2013-07-10 10:02:00,56.0,-99.9,29.96,West,269,6.0,11.0,-999,-99.99,,,-99.99,,2013-07-10 17:02:00,
2013-07-10 10:12:00,56.0,-99.9,29.96,West,268,6.0,11.0,-999,-99.99,,,-99.99,,2013-07-10 17:12:00,
2013-07-10 10:32:00,56.0,-99.9,29.96,West,266,11.0,14.0,-999,-99.99,,,-99.99,,2013-07-10 17:32:00,
2013-07-10 10:43:00,56.0,-99.9,29.96,West,263,8.0,11.0,-999,-99.99,,,-99.99,,2013-07-10 17:43:00,
2013-07-10 10:53:00,56.0,-99.9,29.96,WSW,241,7.0,14.0,-999,-99.99,,,-99.99,,2013-07-10 17:53:00,
2013-07-10 11:02:00,56.0,-99.9,29.96,WSW,241,7.0,14.0,-999,-99.99,,,-99.99,,2013-07-10 18:02:00,
2013-07-10 11:11:00,57.0,-99.9,29.96,West,262,9.0,13.0,-999,-99.99,,,-99.99,,2013-07-10 18:11:00,
2013-07-10 11:32:00,58.0,-99.9,29.96,West,276,8.0,13.0,-999,-99.99,,,-99.99,,2013-07-10 18:32:00,
2013-07-10 11:44:00,60.0,-99.9,29.96,West,273,6.0,12.0,-999,-99.99,,,-99.99,,2013-07-10 18:44:00,
2013-07-10 11:53:00,60.0,-99.9,29.96,WSW,249,6.0,14.0,-999,-99.99,,,-99.99,,2013-07-10 18:53:00,
2013-07-10 12:02:00,58.0,-99.9,29.97,WSW,257,11.0,15.0,-999,-99.99,,,-99.99,,2013-07-10 19:02:00,
2013-07-10 12:11:00,60.0,-99.9,29.96,WSW,245,8.0,15.0,-999,-99.99,,,-99.99,,2013-07-10 19:11:00,
2013-07-10 12:22:00,60.0,-99.9,29.96,WSW,245,8.0,15.0,-999,-99.99,,,-99.99,,2013-07-10 19:22:00,
2013-07-10 12:32:00,60.0,-99.9,29.96,West,266,9.0,14.0,-999,-99.99,,,-99.99,,2013-07-10 19:32:00,
2013-07-10 13:02:00,61.0,-99.9,29.96,SW,215,3.0,10.0,-999,-99.99,,,-99.99,,2013-07-10 20:02:00,
2013-07-10 13:22:00,59.0,-99.9,29.97,WSW,253,13.0,20.0,-999,-99.99,,,-99.99,,2013-07-10 20:22:00,
2013-07-10 13:43:00,62.0,-99.9,29.96,WSW,250,6.0,14.0,-999,-99.99,,,-99.99,,2013-07-10 20:43:00,
2013-07-10 13:52:00,62.0,-99.9,29.96,WSW,250,6.0,14.0,-999,-99.99,,,-99.99,,2013-07-10 20:52:00,
2013-07-10 15:33:00,62.0,-99.9,29.93,West,260,9.0,16.0,-999,-99.99,,,-99.99,,2013-07-10 22:33:00,
2013-07-10 15:43:00,63.0,-99.9,29.93,West,264,4.0,15.0,-999,-99.99,,,-99.99,,2013-07-10 22:43:00,
2013-07-10 15:53:00,62.0,-99.9,29.93,WSW,240,6.0,11.0,-999,-99.99,,,-99.99,,2013-07-10 22:53:00,
2013-07-10 16:02:00,60.0,-99.9,29.93,West,267,13.0,21.0,-999,-99.99,,,-99.99,,2013-07-10 23:02:00,
2013-07-10 16:11:00,60.0,-99.9,29.93,West,266,14.0,21.0,-999,-99.99,,,-99.99,,2013-07-10 23:11:00,
2013-07-10 16:32:00,60.0,-99.9,29.92,West,270,9.0,21.0,-999,-99.99,,,-99.99,,2013-07-10 23:32:00,
2013-07-10 16:43:00,60.0,-99.9,29.92,West,270,9.0,21.0,-999,-99.99,,,-99.99,,2013-07-10 23:43:00,
2013-07-10 16:52:00,59.0,-99.9,29.92,WSW,258,11.0,23.0,-999,-99.99,,,-99.99,,2013-07-10 23:52:00,
2013-07-10 17:01:00,60.0,-99.9,29.92,WNW,286,6.0,14.0,-999,-99.99,,,-99.99,,2013-07-11 00:01:00,
2013-07-10 17:32:00,58.0,-99.9,29.92,West,264,10.0,19.0,-999,-99.99,,,-99.99,,2013-07-11 00:32:00,
2013-07-10 17:43:00,59.0,-99.9,29.91,West,263,11.0,18.0,-999,-99.99,,,-99.99,,2013-07-11 00:43:00,
2013-07-10 17:52:00,59.0,-99.9,29.91,West,263,11.0,18.0,-999,-99.99,,,-99.99,,2013-07-11 00:52:00,
2013-07-10 18:01:00,59.0,-99.9,29.91,West,261,9.0,15.0,-999,-99.99,,,-99.99,,2013-07-11 01:01:00,
2013-07-10 18:11:00,58.0,-99.9,29.91,West,271,11.0,20.0,-999,-99.99,,,-99.99,,2013-07-11 01:11:00,
2013-07-10 18:32:00,57.0,-99.9,29.91,WSW,258,7.0,16.0,-999,-99.99,,,-99.99,,2013-07-11 01:32:00,
2013-07-10 18:43:00,57.0,-99.9,29.90,West,262,8.0,15.0,-999,-99.99,,,-99.99,,2013-07-11 01:43:00,
2013-07-10 18:52:00,57.0,-99.9,29.90,West,281,7.0,16.0,-999,-99.99,,,-99.99,,2013-07-11 01:52:00,
2013-07-10 19:02:00,57.0,-99.9,29.90,West,267,8.0,15.0,-999,-99.99,,,-99.99,,2013-07-11 02:02:00,
2013-07-10 19:32:00,56.0,-99.9,29.90,West,281,7.0,13.0,-999,-99.99,,,-99.99,,2013-07-11 02:32:00,
2013-07-10 19:44:00,56.0,-99.9,29.90,West,263,9.0,13.0,-999,-99.99,,,-99.99,,2013-07-11 02:44:00,
2013-07-10 19:53:00,56.0,-99.9,29.90,West,263,9.0,13.0,-999,-99.99,,,-99.99,,2013-07-11 02:53:00,
2013-07-10 20:02:00,56.0,-99.9,29.91,West,272,3.0,14.0,-999,-99.99,,,-99.99,,2013-07-11 03:02:00,
2013-07-10 20:11:00,55.0,-99.9,29.91,West,262,13.0,19.0,-999,-99.99,,,-99.99,,2013-07-11 03:11:00,
2013-07-10 20:33:00,55.0,-99.9,29.91,West,262,12.0,20.0,-999,-99.99,,,-99.99,,2013-07-11 03:33:00,
2013-07-10 20:42:00,55.0,-99.9,29.91,West,268,9.0,15.0,-999,-99.99,,,-99.99,,2013-07-11 03:42:00,
2013-07-10 20:53:00,55.0,-99.9,29.91,West,266,10.0,18.0,-999,-99.99,,,-99.99,,2013-07-11 03:53:00,
2013-07-10 21:02:00,55.0,-99.9,29.91,West,274,8.0,15.0,-999,-99.99,,,-99.99,,2013-07-11 04:02:00,
2013-07-10 21:12:00,54.0,-99.9,29.91,West,261,11.0,19.0,-999,-99.99,,,-99.99,,2013-07-11 04:12:00,
2013-07-10 21:32:00,54.0,-99.9,29.91,WSW,253,9.0,15.0,-999,-99.99,,,-99.99,,2013-07-11 04:32:00,
2013-07-10 21:43:00,54.0,-99.9,29.91,WSW,245,6.0,15.0,-999,-99.99,,,-99.99,,2013-07-11 04:43:00,
2013-07-10 21:53:00,54.0,-99.9,29.92,SW,218,6.0,16.0,-999,-99.99,,,-99.99,,2013-07-11 04:53:00,
2013-07-10 22:02:00,54.0,-99.9,29.93,WSW,256,7.0,16.0,-999,-99.99,,,-99.99,,2013-07-11 05:02:00,
2013-07-10 22:32:00,53.0,-99.9,29.93,WSW,238,11.0,16.0,-999,-99.99,,,-99.99,,2013-07-11 05:32:00,
2013-07-10 22:43:00,54.0,-99.9,29.93,WSW,239,9.0,17.0,-999,-99.99,,,-99.99,,2013-07-11 05:43:00,
2013-07-10 22:52:00,54.0,-99.9,29.93,WSW,239,9.0,17.0,-999,-99.99,,,-99.99,,2013-07-11 05:52:00,
2013-07-10 23:01:00,54.0,-99.9,29.94,SW,218,4.0,13.0,-999,-99.99,,,-99.99,,2013-07-11 06:01:00,
2013-07-10 23:12:00,54.0,-99.9,29.94,West,261,9.0,16.0,-999,-99.99,,,-99.99,,2013-07-11 06:12:00,
2013-07-10 23:32:00,53.0,-99.9,29.94,WSW,255,6.0,13.0,-999,-99.99,,,-99.99,,2013-07-11 06:32:00,
2013-07-10 23:43:00,54.0,-99.9,29.94,WSW,257,6.0,11.0,-999,-99.99,,,-99.99,,2013-07-11 06:43:00,
2013-07-10 23:53:00,54.0,-99.9,29.94,West,265,7.0,11.0,-999,-99.99,,,-99.99,,2013-07-11 06:53:00,